sensor_id;sensor_type;location;lat;lon;timestamp;temperature;humidity
46784;DHT22;32544;52.832;13.816;2023-07-08T00:00:12;25.20;42.90
46784;DHT22;32544;52.832;13.816;2023-07-08T00:01:14;25.20;43.00
46784;DHT22;32544;52.832;13.816;2023-07-08T00:02:15;25.20;43.00
46784;DHT22;32544;52.832;13.816;2023-07-08T00:03:16;25.20;43.00
46784;DHT22;32544;52.832;13.816;2023-07-08T00:04:17;25.20;42.90
46784;DHT22;32544;52.832;13.816;2023-07-08T00:05:18;25.20;42.90
46784;DHT22;32544;52.832;13.816;2023-07-08T00:06:20;25.20;42.90
46784;DHT22;32544;52.832;13.816;2023-07-08T00:07:21;25.20;42.90
46784;DHT22;32544;52.832;13.816;2023-07-08T00:08:22;25.20;42.90
46784;DHT22;32544;52.832;13.816;2023-07-08T00:09:22;25.20;43.00
46784;DHT22;32544;52.832;13.816;2023-07-08T00:10:24;25.20;42.90
46784;DHT22;32544;52.832;13.816;2023-07-08T00:11:25;25.20;42.90
46784;DHT22;32544;52.832;13.816;2023-07-08T00:12:26;25.20;42.90
46784;DHT22;32544;52.832;13.816;2023-07-08T00:13:27;25.20;42.90
46784;DHT22;32544;52.832;13.816;2023-07-08T00:14:28;25.20;42.90
46784;DHT22;32544;52.832;13.816;2023-07-08T00:15:29;25.20;42.90
46784;DHT22;32544;52.832;13.816;2023-07-08T00:16:30;25.20;42.90
46784;DHT22;32544;52.832;13.816;2023-07-08T00:17:31;25.20;42.90
46784;DHT22;32544;52.832;13.816;2023-07-08T00:18:31;25.20;42.90
46784;DHT22;32544;52.832;13.816;2023-07-08T00:19:32;25.20;43.00
46784;DHT22;32544;52.832;13.816;2023-07-08T00:20:35;25.20;42.90
46784;DHT22;32544;52.832;13.816;2023-07-08T00:21:37;25.20;43.00
46784;DHT22;32544;52.832;13.816;2023-07-08T00:22:37;25.20;43.00
46784;DHT22;32544;52.832;13.816;2023-07-08T00:23:44;25.10;43.00
46784;DHT22;32544;52.832;13.816;2023-07-08T00:24:46;25.10;43.00
46784;DHT22;32544;52.832;13.816;2023-07-08T00:25:46;25.10;43.00
46784;DHT22;32544;52.832;13.816;2023-07-08T00:26:47;25.20;43.00
46784;DHT22;32544;52.832;13.816;2023-07-08T00:27:47;25.20;43.00
46784;DHT22;32544;52.832;13.816;2023-07-08T00:28:48;25.20;43.00
46784;DHT22;32544;52.832;13.816;2023-07-08T00:29:49;25.20;43.00
46784;DHT22;32544;52.832;13.816;2023-07-08T00:30:49;25.20;43.00
46784;DHT22;32544;52.832;13.816;2023-07-08T00:31:50;25.20;43.00
46784;DHT22;32544;52.832;13.816;2023-07-08T00:32:51;25.20;43.00
46784;DHT22;32544;52.832;13.816;2023-07-08T00:33:55;25.20;43.10
46784;DHT22;32544;52.832;13.816;2023-07-08T00:34:56;25.20;43.10
46784;DHT22;32544;52.832;13.816;2023-07-08T00:35:57;25.10;43.00
46784;DHT22;32544;52.832;13.816;2023-07-08T00:36:57;25.10;43.10
46784;DHT22;32544;52.832;13.816;2023-07-08T00:37:58;25.10;43.00
46784;DHT22;32544;52.832;13.816;2023-07-08T00:39:01;25.10;43.10
46784;DHT22;32544;52.832;13.816;2023-07-08T00:40:16;25.10;43.10
46784;DHT22;32544;52.832;13.816;2023-07-08T00:42:27;25.10;43.00
46784;DHT22;32544;52.832;13.816;2023-07-08T00:43:38;25.10;43.00
46784;DHT22;32544;52.832;13.816;2023-07-08T00:44:38;25.10;43.00
46784;DHT22;32544;52.832;13.816;2023-07-08T00:45:41;25.10;43.10
46784;DHT22;32544;52.832;13.816;2023-07-08T00:46:46;25.10;43.00
46784;DHT22;32544;52.832;13.816;2023-07-08T00:47:49;25.10;43.10
46784;DHT22;32544;52.832;13.816;2023-07-08T00:48:51;25.10;43.00
46784;DHT22;32544;52.832;13.816;2023-07-08T00:49:54;25.20;43.00
46784;DHT22;32544;52.832;13.816;2023-07-08T00:50:56;25.20;43.00
46784;DHT22;32544;52.832;13.816;2023-07-08T00:52:14;25.20;43.10
46784;DHT22;32544;52.832;13.816;2023-07-08T00:53:35;25.10;43.00
46784;DHT22;32544;52.832;13.816;2023-07-08T00:54:35;25.20;43.00
46784;DHT22;32544;52.832;13.816;2023-07-08T00:55:36;25.20;43.00
46784;DHT22;32544;52.832;13.816;2023-07-08T00:56:39;25.10;43.00
46784;DHT22;32544;52.832;13.816;2023-07-08T00:57:42;25.20;43.00
46784;DHT22;32544;52.832;13.816;2023-07-08T00:58:44;25.20;43.00
46784;DHT22;32544;52.832;13.816;2023-07-08T00:59:48;25.10;43.00
46784;DHT22;32544;52.832;13.816;2023-07-08T01:00:50;25.10;43.00
46784;DHT22;32544;52.832;13.816;2023-07-08T01:01:52;25.10;43.00
46784;DHT22;32544;52.832;13.816;2023-07-08T01:02:54;25.10;43.00
46784;DHT22;32544;52.832;13.816;2023-07-08T01:03:59;25.10;43.00
46784;DHT22;32544;52.832;13.816;2023-07-08T01:05:04;25.10;43.00
46784;DHT22;32544;52.832;13.816;2023-07-08T01:06:05;25.10;43.10
46784;DHT22;32544;52.832;13.816;2023-07-08T01:07:06;25.10;43.00
46784;DHT22;32544;52.832;13.816;2023-07-08T01:08:09;25.20;43.10
46784;DHT22;32544;52.832;13.816;2023-07-08T01:09:10;25.10;43.10
46784;DHT22;32544;52.832;13.816;2023-07-08T01:10:14;25.10;43.10
46784;DHT22;32544;52.832;13.816;2023-07-08T01:11:17;25.10;43.10
46784;DHT22;32544;52.832;13.816;2023-07-08T01:12:23;25.10;43.00
46784;DHT22;32544;52.832;13.816;2023-07-08T01:13:25;25.10;43.10
46784;DHT22;32544;52.832;13.816;2023-07-08T01:14:27;25.10;43.10
46784;DHT22;32544;52.832;13.816;2023-07-08T01:15:33;25.10;43.10
46784;DHT22;32544;52.832;13.816;2023-07-08T01:16:35;25.10;43.10
46784;DHT22;32544;52.832;13.816;2023-07-08T01:17:36;25.10;43.10
46784;DHT22;32544;52.832;13.816;2023-07-08T01:18:36;25.10;43.10
46784;DHT22;32544;52.832;13.816;2023-07-08T01:19:38;25.10;43.10
46784;DHT22;32544;52.832;13.816;2023-07-08T01:20:39;25.10;43.10
46784;DHT22;32544;52.832;13.816;2023-07-08T01:21:47;25.10;43.10
46784;DHT22;32544;52.832;13.816;2023-07-08T01:22:47;25.10;43.10
46784;DHT22;32544;52.832;13.816;2023-07-08T01:23:48;25.10;43.10
46784;DHT22;32544;52.832;13.816;2023-07-08T01:24:48;25.10;43.10
46784;DHT22;32544;52.832;13.816;2023-07-08T01:25:49;25.10;43.10
46784;DHT22;32544;52.832;13.816;2023-07-08T01:26:50;25.10;43.10
46784;DHT22;32544;52.832;13.816;2023-07-08T01:27:52;25.20;43.10
46784;DHT22;32544;52.832;13.816;2023-07-08T01:28:54;25.10;43.10
46784;DHT22;32544;52.832;13.816;2023-07-08T01:29:55;25.10;43.10
46784;DHT22;32544;52.832;13.816;2023-07-08T01:30:56;25.10;43.70
46784;DHT22;32544;52.832;13.816;2023-07-08T01:31:57;25.10;43.10
46784;DHT22;32544;52.832;13.816;2023-07-08T01:32:59;25.10;43.10
46784;DHT22;32544;52.832;13.816;2023-07-08T01:34:01;25.10;43.10
46784;DHT22;32544;52.832;13.816;2023-07-08T01:35:02;25.10;43.10
46784;DHT22;32544;52.832;13.816;2023-07-08T01:36:03;25.10;43.10
46784;DHT22;32544;52.832;13.816;2023-07-08T01:37:04;25.10;43.10
46784;DHT22;32544;52.832;13.816;2023-07-08T01:38:05;25.10;43.10
46784;DHT22;32544;52.832;13.816;2023-07-08T01:39:11;25.10;43.10
46784;DHT22;32544;52.832;13.816;2023-07-08T01:41:16;25.10;43.10
46784;DHT22;32544;52.832;13.816;2023-07-08T01:42:17;25.10;43.10
46784;DHT22;32544;52.832;13.816;2023-07-08T01:43:18;25.10;43.10
46784;DHT22;32544;52.832;13.816;2023-07-08T01:44:20;25.10;43.10
46784;DHT22;32544;52.832;13.816;2023-07-08T01:45:22;25.10;43.70
46784;DHT22;32544;52.832;13.816;2023-07-08T01:46:23;25.10;43.10
46784;DHT22;32544;52.832;13.816;2023-07-08T01:47:24;25.10;43.10
46784;DHT22;32544;52.832;13.816;2023-07-08T01:48:25;25.10;43.10
46784;DHT22;32544;52.832;13.816;2023-07-08T01:49:28;25.10;43.10
46784;DHT22;32544;52.832;13.816;2023-07-08T01:50:29;25.10;43.10
46784;DHT22;32544;52.832;13.816;2023-07-08T01:51:31;25.10;43.10
46784;DHT22;32544;52.832;13.816;2023-07-08T01:52:32;25.10;43.10
46784;DHT22;32544;52.832;13.816;2023-07-08T01:53:33;25.10;43.10
46784;DHT22;32544;52.832;13.816;2023-07-08T01:54:34;25.10;43.10
46784;DHT22;32544;52.832;13.816;2023-07-08T01:55:35;25.10;43.10
46784;DHT22;32544;52.832;13.816;2023-07-08T01:56:35;25.10;43.10
46784;DHT22;32544;52.832;13.816;2023-07-08T01:57:36;25.10;43.10
46784;DHT22;32544;52.832;13.816;2023-07-08T01:58:37;25.10;43.10
46784;DHT22;32544;52.832;13.816;2023-07-08T01:59:37;25.10;43.70
46784;DHT22;32544;52.832;13.816;2023-07-08T02:00:38;25.10;43.10
46784;DHT22;32544;52.832;13.816;2023-07-08T02:01:38;25.10;43.10
46784;DHT22;32544;52.832;13.816;2023-07-08T02:02:39;25.10;43.10
46784;DHT22;32544;52.832;13.816;2023-07-08T02:03:40;25.10;43.10
46784;DHT22;32544;52.832;13.816;2023-07-08T02:04:41;25.10;43.10
46784;DHT22;32544;52.832;13.816;2023-07-08T02:05:42;25.10;43.10
46784;DHT22;32544;52.832;13.816;2023-07-08T02:06:43;25.10;43.10
46784;DHT22;32544;52.832;13.816;2023-07-08T02:07:44;25.10;43.10
46784;DHT22;32544;52.832;13.816;2023-07-08T02:08:44;25.10;43.10
46784;DHT22;32544;52.832;13.816;2023-07-08T02:09:45;25.10;43.10
46784;DHT22;32544;52.832;13.816;2023-07-08T02:10:50;25.10;43.10
46784;DHT22;32544;52.832;13.816;2023-07-08T02:11:51;25.10;43.10
46784;DHT22;32544;52.832;13.816;2023-07-08T02:12:52;25.10;43.10
46784;DHT22;32544;52.832;13.816;2023-07-08T02:13:53;25.10;43.20
46784;DHT22;32544;52.832;13.816;2023-07-08T02:14:53;25.10;43.10
46784;DHT22;32544;52.832;13.816;2023-07-08T02:15:54;25.10;43.10
46784;DHT22;32544;52.832;13.816;2023-07-08T02:16:55;25.10;43.10
46784;DHT22;32544;52.832;13.816;2023-07-08T02:17:55;25.10;43.10
46784;DHT22;32544;52.832;13.816;2023-07-08T02:18:56;25.10;43.10
46784;DHT22;32544;52.832;13.816;2023-07-08T02:19:56;25.10;43.10
46784;DHT22;32544;52.832;13.816;2023-07-08T02:20:57;25.10;43.20
46784;DHT22;32544;52.832;13.816;2023-07-08T02:21:57;25.10;43.10
46784;DHT22;32544;52.832;13.816;2023-07-08T02:22:58;25.10;43.10
46784;DHT22;32544;52.832;13.816;2023-07-08T02:23:59;25.10;43.20
46784;DHT22;32544;52.832;13.816;2023-07-08T02:25:00;25.10;43.20
46784;DHT22;32544;52.832;13.816;2023-07-08T02:26:01;25.10;43.20
46784;DHT22;32544;52.832;13.816;2023-07-08T02:27:02;25.10;43.20
46784;DHT22;32544;52.832;13.816;2023-07-08T02:28:02;25.10;43.20
46784;DHT22;32544;52.832;13.816;2023-07-08T02:29:03;25.10;43.10
46784;DHT22;32544;52.832;13.816;2023-07-08T02:30:05;25.10;43.10
46784;DHT22;32544;52.832;13.816;2023-07-08T02:31:06;25.10;43.10
46784;DHT22;32544;52.832;13.816;2023-07-08T02:32:08;25.10;43.10
46784;DHT22;32544;52.832;13.816;2023-07-08T02:33:10;25.10;43.10
46784;DHT22;32544;52.832;13.816;2023-07-08T02:34:10;25.10;43.10
46784;DHT22;32544;52.832;13.816;2023-07-08T02:35:11;25.10;43.10
46784;DHT22;32544;52.832;13.816;2023-07-08T02:36:13;25.10;43.10
46784;DHT22;32544;52.832;13.816;2023-07-08T02:37:14;25.10;43.10
46784;DHT22;32544;52.832;13.816;2023-07-08T02:38:14;25.10;43.10
46784;DHT22;32544;52.832;13.816;2023-07-08T02:39:15;25.10;43.10
46784;DHT22;32544;52.832;13.816;2023-07-08T02:40:15;25.10;43.10
46784;DHT22;32544;52.832;13.816;2023-07-08T02:41:16;25.10;43.10
46784;DHT22;32544;52.832;13.816;2023-07-08T02:42:17;25.10;43.10
46784;DHT22;32544;52.832;13.816;2023-07-08T02:43:17;25.10;43.10
46784;DHT22;32544;52.832;13.816;2023-07-08T02:44:18;25.10;43.10
46784;DHT22;32544;52.832;13.816;2023-07-08T02:45:19;25.10;43.10
46784;DHT22;32544;52.832;13.816;2023-07-08T02:46:19;25.10;43.10
46784;DHT22;32544;52.832;13.816;2023-07-08T02:47:20;25.10;43.10
46784;DHT22;32544;52.832;13.816;2023-07-08T02:48:20;25.10;43.10
46784;DHT22;32544;52.832;13.816;2023-07-08T02:49:21;25.10;43.10
46784;DHT22;32544;52.832;13.816;2023-07-08T02:50:22;25.10;43.10
46784;DHT22;32544;52.832;13.816;2023-07-08T02:51:22;25.10;43.10
46784;DHT22;32544;52.832;13.816;2023-07-08T02:52:23;25.10;43.20
46784;DHT22;32544;52.832;13.816;2023-07-08T02:53:23;25.00;43.10
46784;DHT22;32544;52.832;13.816;2023-07-08T02:54:24;25.00;43.10
46784;DHT22;32544;52.832;13.816;2023-07-08T02:55:25;25.00;43.20
46784;DHT22;32544;52.832;13.816;2023-07-08T02:56:25;25.00;43.20
46784;DHT22;32544;52.832;13.816;2023-07-08T02:57:29;25.00;43.20
46784;DHT22;32544;52.832;13.816;2023-07-08T02:58:29;25.00;43.10
46784;DHT22;32544;52.832;13.816;2023-07-08T02:59:30;25.00;43.10
46784;DHT22;32544;52.832;13.816;2023-07-08T03:00:30;25.00;43.10
46784;DHT22;32544;52.832;13.816;2023-07-08T03:01:31;25.00;43.10
46784;DHT22;32544;52.832;13.816;2023-07-08T03:02:34;25.00;43.10
46784;DHT22;32544;52.832;13.816;2023-07-08T03:03:35;25.00;43.10
46784;DHT22;32544;52.832;13.816;2023-07-08T03:04:35;25.00;43.10
46784;DHT22;32544;52.832;13.816;2023-07-08T03:05:39;25.00;43.10
46784;DHT22;32544;52.832;13.816;2023-07-08T03:06:40;25.00;43.10
46784;DHT22;32544;52.832;13.816;2023-07-08T03:07:41;25.00;43.20
46784;DHT22;32544;52.832;13.816;2023-07-08T03:08:41;25.00;43.20
46784;DHT22;32544;52.832;13.816;2023-07-08T03:09:42;25.00;43.20
46784;DHT22;32544;52.832;13.816;2023-07-08T03:10:42;25.00;43.20
46784;DHT22;32544;52.832;13.816;2023-07-08T03:11:46;25.00;43.20
46784;DHT22;32544;52.832;13.816;2023-07-08T03:12:46;25.00;43.20
46784;DHT22;32544;52.832;13.816;2023-07-08T03:13:47;25.10;43.20
46784;DHT22;32544;52.832;13.816;2023-07-08T03:14:47;25.00;43.10
46784;DHT22;32544;52.832;13.816;2023-07-08T03:15:48;25.00;43.10
46784;DHT22;32544;52.832;13.816;2023-07-08T03:16:49;25.10;43.20
46784;DHT22;32544;52.832;13.816;2023-07-08T03:17:49;25.00;43.20
46784;DHT22;32544;52.832;13.816;2023-07-08T03:18:50;25.00;43.20
46784;DHT22;32544;52.832;13.816;2023-07-08T03:19:50;25.00;43.10
46784;DHT22;32544;52.832;13.816;2023-07-08T03:20:51;25.00;43.20
46784;DHT22;32544;52.832;13.816;2023-07-08T03:21:52;25.00;43.20
46784;DHT22;32544;52.832;13.816;2023-07-08T03:22:52;25.00;43.10
46784;DHT22;32544;52.832;13.816;2023-07-08T03:23:53;25.00;43.20
46784;DHT22;32544;52.832;13.816;2023-07-08T03:24:54;25.00;43.20
46784;DHT22;32544;52.832;13.816;2023-07-08T03:25:56;25.00;43.20
46784;DHT22;32544;52.832;13.816;2023-07-08T03:26:58;25.10;43.20
46784;DHT22;32544;52.832;13.816;2023-07-08T03:28:00;25.00;43.20
46784;DHT22;32544;52.832;13.816;2023-07-08T03:29:01;25.00;43.20
46784;DHT22;32544;52.832;13.816;2023-07-08T03:30:03;25.00;43.20
46784;DHT22;32544;52.832;13.816;2023-07-08T03:31:10;25.00;43.20
46784;DHT22;32544;52.832;13.816;2023-07-08T03:32:12;25.00;43.20
46784;DHT22;32544;52.832;13.816;2023-07-08T03:33:13;25.00;43.20
46784;DHT22;32544;52.832;13.816;2023-07-08T03:34:16;25.00;43.10
46784;DHT22;32544;52.832;13.816;2023-07-08T03:35:17;25.00;43.20
46784;DHT22;32544;52.832;13.816;2023-07-08T03:36:17;25.00;43.10
46784;DHT22;32544;52.832;13.816;2023-07-08T03:37:25;25.00;43.10
46784;DHT22;32544;52.832;13.816;2023-07-08T03:38:25;25.00;43.10
46784;DHT22;32544;52.832;13.816;2023-07-08T03:39:26;25.00;43.20
46784;DHT22;32544;52.832;13.816;2023-07-08T03:40:26;25.00;43.10
46784;DHT22;32544;52.832;13.816;2023-07-08T03:41:27;25.00;43.10
46784;DHT22;32544;52.832;13.816;2023-07-08T03:42:29;25.00;43.10
46784;DHT22;32544;52.832;13.816;2023-07-08T03:43:29;25.00;43.10
46784;DHT22;32544;52.832;13.816;2023-07-08T03:44:30;25.00;43.10
46784;DHT22;32544;52.832;13.816;2023-07-08T03:45:31;25.00;43.10
46784;DHT22;32544;52.832;13.816;2023-07-08T03:46:32;25.00;43.20
46784;DHT22;32544;52.832;13.816;2023-07-08T03:47:32;25.00;43.10
46784;DHT22;32544;52.832;13.816;2023-07-08T03:48:34;25.00;43.20
46784;DHT22;32544;52.832;13.816;2023-07-08T03:49:35;25.00;43.20
46784;DHT22;32544;52.832;13.816;2023-07-08T03:50:36;25.00;43.20
46784;DHT22;32544;52.832;13.816;2023-07-08T03:51:38;25.00;43.30
46784;DHT22;32544;52.832;13.816;2023-07-08T03:52:39;25.00;43.30
46784;DHT22;32544;52.832;13.816;2023-07-08T03:53:39;25.00;43.30
46784;DHT22;32544;52.832;13.816;2023-07-08T03:54:40;25.00;43.30
46784;DHT22;32544;52.832;13.816;2023-07-08T03:55:41;25.00;43.30
46784;DHT22;32544;52.832;13.816;2023-07-08T03:56:43;25.00;43.20
46784;DHT22;32544;52.832;13.816;2023-07-08T03:57:44;25.00;43.20
46784;DHT22;32544;52.832;13.816;2023-07-08T03:58:45;25.00;43.20
46784;DHT22;32544;52.832;13.816;2023-07-08T03:59:46;25.00;43.20
46784;DHT22;32544;52.832;13.816;2023-07-08T04:00:47;25.00;43.20
46784;DHT22;32544;52.832;13.816;2023-07-08T04:01:48;25.00;43.20
46784;DHT22;32544;52.832;13.816;2023-07-08T04:02:48;25.00;43.20
46784;DHT22;32544;52.832;13.816;2023-07-08T04:03:55;25.00;43.20
46784;DHT22;32544;52.832;13.816;2023-07-08T04:04:56;25.00;43.20
46784;DHT22;32544;52.832;13.816;2023-07-08T04:05:57;25.00;43.20
46784;DHT22;32544;52.832;13.816;2023-07-08T04:06:57;25.00;43.20
46784;DHT22;32544;52.832;13.816;2023-07-08T04:07:58;25.00;43.20
46784;DHT22;32544;52.832;13.816;2023-07-08T04:08:59;25.00;43.20
46784;DHT22;32544;52.832;13.816;2023-07-08T04:10:00;25.00;43.20
46784;DHT22;32544;52.832;13.816;2023-07-08T04:11:01;25.00;43.20
46784;DHT22;32544;52.832;13.816;2023-07-08T04:12:01;25.00;43.20
46784;DHT22;32544;52.832;13.816;2023-07-08T04:13:02;25.00;43.20
46784;DHT22;32544;52.832;13.816;2023-07-08T04:14:02;25.00;43.20
46784;DHT22;32544;52.832;13.816;2023-07-08T04:15:03;25.00;43.20
46784;DHT22;32544;52.832;13.816;2023-07-08T04:16:04;25.00;43.30
46784;DHT22;32544;52.832;13.816;2023-07-08T04:17:06;25.00;43.20
46784;DHT22;32544;52.832;13.816;2023-07-08T04:18:07;25.00;43.20
46784;DHT22;32544;52.832;13.816;2023-07-08T04:19:08;25.00;43.20
46784;DHT22;32544;52.832;13.816;2023-07-08T04:20:16;25.00;43.20
46784;DHT22;32544;52.832;13.816;2023-07-08T04:21:18;25.00;43.20
46784;DHT22;32544;52.832;13.816;2023-07-08T04:22:18;25.00;43.20
46784;DHT22;32544;52.832;13.816;2023-07-08T04:23:19;25.00;43.20
46784;DHT22;32544;52.832;13.816;2023-07-08T04:24:20;25.00;43.20
46784;DHT22;32544;52.832;13.816;2023-07-08T04:25:20;25.00;43.20
46784;DHT22;32544;52.832;13.816;2023-07-08T04:26:21;25.00;43.20
46784;DHT22;32544;52.832;13.816;2023-07-08T04:27:22;25.00;43.20
46784;DHT22;32544;52.832;13.816;2023-07-08T04:28:22;25.00;43.20
46784;DHT22;32544;52.832;13.816;2023-07-08T04:29:23;25.00;43.30
46784;DHT22;32544;52.832;13.816;2023-07-08T04:30:24;25.00;43.30
46784;DHT22;32544;52.832;13.816;2023-07-08T04:31:25;25.00;43.30
46784;DHT22;32544;52.832;13.816;2023-07-08T04:32:25;25.00;43.30
46784;DHT22;32544;52.832;13.816;2023-07-08T04:33:26;25.00;43.30
46784;DHT22;32544;52.832;13.816;2023-07-08T04:34:26;25.00;43.30
46784;DHT22;32544;52.832;13.816;2023-07-08T04:35:29;25.00;43.30
46784;DHT22;32544;52.832;13.816;2023-07-08T04:36:29;25.00;43.30
46784;DHT22;32544;52.832;13.816;2023-07-08T04:37:30;25.00;43.30
46784;DHT22;32544;52.832;13.816;2023-07-08T04:38:30;25.00;43.30
46784;DHT22;32544;52.832;13.816;2023-07-08T04:39:32;25.00;43.30
46784;DHT22;32544;52.832;13.816;2023-07-08T04:40:32;25.00;43.30
46784;DHT22;32544;52.832;13.816;2023-07-08T04:41:33;25.00;43.40
46784;DHT22;32544;52.832;13.816;2023-07-08T04:42:34;25.00;43.40
46784;DHT22;32544;52.832;13.816;2023-07-08T04:43:35;25.00;43.40
46784;DHT22;32544;52.832;13.816;2023-07-08T04:44:35;25.00;43.40
46784;DHT22;32544;52.832;13.816;2023-07-08T04:45:36;25.00;43.40
46784;DHT22;32544;52.832;13.816;2023-07-08T04:47:44;25.00;43.40
46784;DHT22;32544;52.832;13.816;2023-07-08T04:48:47;25.00;43.40
46784;DHT22;32544;52.832;13.816;2023-07-08T04:49:48;25.00;43.40
46784;DHT22;32544;52.832;13.816;2023-07-08T04:50:49;25.00;43.40
46784;DHT22;32544;52.832;13.816;2023-07-08T04:51:50;25.00;43.40
46784;DHT22;32544;52.832;13.816;2023-07-08T04:52:52;25.00;43.40
46784;DHT22;32544;52.832;13.816;2023-07-08T04:53:52;25.00;43.40
46784;DHT22;32544;52.832;13.816;2023-07-08T04:54:53;25.00;43.40
46784;DHT22;32544;52.832;13.816;2023-07-08T04:55:54;25.00;43.40
46784;DHT22;32544;52.832;13.816;2023-07-08T04:56:55;25.00;43.50
46784;DHT22;32544;52.832;13.816;2023-07-08T04:57:56;24.90;43.70
46784;DHT22;32544;52.832;13.816;2023-07-08T04:58:56;24.90;43.70
46784;DHT22;32544;52.832;13.816;2023-07-08T04:59:57;24.80;43.80
46784;DHT22;32544;52.832;13.816;2023-07-08T05:00:57;24.80;43.90
46784;DHT22;32544;52.832;13.816;2023-07-08T05:01:58;24.90;43.70
46784;DHT22;32544;52.832;13.816;2023-07-08T05:02:59;24.90;43.70
46784;DHT22;32544;52.832;13.816;2023-07-08T05:03:59;24.90;43.70
46784;DHT22;32544;52.832;13.816;2023-07-08T05:05:00;24.90;43.70
46784;DHT22;32544;52.832;13.816;2023-07-08T05:06:01;24.90;43.70
46784;DHT22;32544;52.832;13.816;2023-07-08T05:07:01;24.90;43.70
46784;DHT22;32544;52.832;13.816;2023-07-08T05:08:02;25.00;43.70
46784;DHT22;32544;52.832;13.816;2023-07-08T05:09:03;24.90;43.70
46784;DHT22;32544;52.832;13.816;2023-07-08T05:10:04;24.90;43.70
46784;DHT22;32544;52.832;13.816;2023-07-08T05:11:04;24.80;44.00
46784;DHT22;32544;52.832;13.816;2023-07-08T05:12:05;24.90;44.00
46784;DHT22;32544;52.832;13.816;2023-07-08T05:13:06;24.80;44.00
46784;DHT22;32544;52.832;13.816;2023-07-08T05:14:07;24.80;44.00
46784;DHT22;32544;52.832;13.816;2023-07-08T05:15:07;24.80;44.00
46784;DHT22;32544;52.832;13.816;2023-07-08T05:16:08;24.80;43.90
46784;DHT22;32544;52.832;13.816;2023-07-08T05:17:09;24.90;43.90
46784;DHT22;32544;52.832;13.816;2023-07-08T05:18:10;24.90;43.90
46784;DHT22;32544;52.832;13.816;2023-07-08T05:19:10;24.90;43.90
46784;DHT22;32544;52.832;13.816;2023-07-08T05:20:12;24.90;43.80
46784;DHT22;32544;52.832;13.816;2023-07-08T05:21:13;24.90;43.90
46784;DHT22;32544;52.832;13.816;2023-07-08T05:22:14;24.90;43.90
46784;DHT22;32544;52.832;13.816;2023-07-08T05:23:15;24.90;43.90
46784;DHT22;32544;52.832;13.816;2023-07-08T05:24:15;24.90;43.90
46784;DHT22;32544;52.832;13.816;2023-07-08T05:25:17;24.90;43.90
46784;DHT22;32544;52.832;13.816;2023-07-08T05:26:18;24.90;43.90
46784;DHT22;32544;52.832;13.816;2023-07-08T05:27:18;24.90;43.80
46784;DHT22;32544;52.832;13.816;2023-07-08T05:28:19;24.90;43.80
46784;DHT22;32544;52.832;13.816;2023-07-08T05:29:21;24.90;43.90
46784;DHT22;32544;52.832;13.816;2023-07-08T05:30:22;24.90;43.70
46784;DHT22;32544;52.832;13.816;2023-07-08T05:31:23;24.90;43.80
46784;DHT22;32544;52.832;13.816;2023-07-08T05:32:23;24.90;43.80
46784;DHT22;32544;52.832;13.816;2023-07-08T05:33:26;24.90;43.80
46784;DHT22;32544;52.832;13.816;2023-07-08T05:34:26;24.90;43.80
46784;DHT22;32544;52.832;13.816;2023-07-08T05:35:27;24.90;43.80
46784;DHT22;32544;52.832;13.816;2023-07-08T05:36:28;25.00;44.00
46784;DHT22;32544;52.832;13.816;2023-07-08T05:37:28;25.00;43.90
46784;DHT22;32544;52.832;13.816;2023-07-08T05:38:29;25.00;43.80
46784;DHT22;32544;52.832;13.816;2023-07-08T05:39:30;25.00;43.90
46784;DHT22;32544;52.832;13.816;2023-07-08T05:40:31;25.00;43.90
46784;DHT22;32544;52.832;13.816;2023-07-08T05:41:31;25.00;43.80
46784;DHT22;32544;52.832;13.816;2023-07-08T05:42:32;25.00;43.70
46784;DHT22;32544;52.832;13.816;2023-07-08T05:43:33;25.00;43.80
46784;DHT22;32544;52.832;13.816;2023-07-08T05:44:33;25.00;43.80
46784;DHT22;32544;52.832;13.816;2023-07-08T05:45:34;25.00;43.70
46784;DHT22;32544;52.832;13.816;2023-07-08T05:46:35;25.00;43.70
46784;DHT22;32544;52.832;13.816;2023-07-08T05:47:37;25.00;43.80
46784;DHT22;32544;52.832;13.816;2023-07-08T05:48:37;25.00;43.90
46784;DHT22;32544;52.832;13.816;2023-07-08T05:49:38;25.00;43.90
46784;DHT22;32544;52.832;13.816;2023-07-08T05:50:39;25.00;43.90
46784;DHT22;32544;52.832;13.816;2023-07-08T05:51:39;25.00;44.20
46784;DHT22;32544;52.832;13.816;2023-07-08T05:52:40;24.90;44.40
46784;DHT22;32544;52.832;13.816;2023-07-08T05:53:41;24.90;44.40
46784;DHT22;32544;52.832;13.816;2023-07-08T05:54:41;24.90;44.30
46784;DHT22;32544;52.832;13.816;2023-07-08T05:55:42;24.90;44.30
46784;DHT22;32544;52.832;13.816;2023-07-08T05:56:43;24.90;44.30
46784;DHT22;32544;52.832;13.816;2023-07-08T05:57:43;24.90;44.20
46784;DHT22;32544;52.832;13.816;2023-07-08T05:58:44;24.90;44.10
46784;DHT22;32544;52.832;13.816;2023-07-08T05:59:44;25.00;44.20
46784;DHT22;32544;52.832;13.816;2023-07-08T06:00:45;24.90;44.30
46784;DHT22;32544;52.832;13.816;2023-07-08T06:01:45;24.90;44.30
46784;DHT22;32544;52.832;13.816;2023-07-08T06:02:46;24.90;44.30
46784;DHT22;32544;52.832;13.816;2023-07-08T06:03:47;25.00;44.30
46784;DHT22;32544;52.832;13.816;2023-07-08T06:04:47;25.00;44.20
46784;DHT22;32544;52.832;13.816;2023-07-08T06:05:48;25.00;44.20
46784;DHT22;32544;52.832;13.816;2023-07-08T06:06:49;25.00;44.10
46784;DHT22;32544;52.832;13.816;2023-07-08T06:07:50;25.00;44.20
46784;DHT22;32544;52.832;13.816;2023-07-08T06:08:50;25.00;44.10
46784;DHT22;32544;52.832;13.816;2023-07-08T06:09:51;25.00;44.10
46784;DHT22;32544;52.832;13.816;2023-07-08T06:10:52;25.00;44.80
46784;DHT22;32544;52.832;13.816;2023-07-08T06:11:52;25.00;44.20
46784;DHT22;32544;52.832;13.816;2023-07-08T06:12:53;25.00;44.10
46784;DHT22;32544;52.832;13.816;2023-07-08T06:13:53;25.00;44.40
46784;DHT22;32544;52.832;13.816;2023-07-08T06:14:54;25.00;44.60
46784;DHT22;32544;52.832;13.816;2023-07-08T06:15:55;24.90;44.60
46784;DHT22;32544;52.832;13.816;2023-07-08T06:16:57;25.00;44.60
46784;DHT22;32544;52.832;13.816;2023-07-08T06:17:58;25.00;44.50
46784;DHT22;32544;52.832;13.816;2023-07-08T06:19:02;25.00;44.40
46784;DHT22;32544;52.832;13.816;2023-07-08T06:20:03;25.00;44.40
46784;DHT22;32544;52.832;13.816;2023-07-08T06:21:03;25.00;44.30
46784;DHT22;32544;52.832;13.816;2023-07-08T06:22:04;25.00;44.30
46784;DHT22;32544;52.832;13.816;2023-07-08T06:23:05;25.00;44.30
46784;DHT22;32544;52.832;13.816;2023-07-08T06:24:05;25.00;44.30